Terminal Aerodrome Forecast
Issued by NWS Wilmington, NC

Home | Current Version | Previous Version | Text Only | Print | Product List | Glossary On
Versions: 1 2 3 4 5 6 7 8 9 10 11 12 13 14
923
FTUS42 KILM 250805 AAA
TAFILM
TAF AMD
KILM 250805Z 2508/2606 00000KT 5SM BR FEW008
      TEMPO 2508/2510 1SM BR BKN008
     FM251000 00000KT 1SM BR VV002
     FM251400 20004KT P6SM FEW004
     FM251600 21008KT P6SM FEW250
     FM252100 25011G18KT P6SM SCT050
     FM260300 30011KT P6SM SKC=

USA.gov is the U.S. government's official web portal to all federal, state and local government web resources and services.